Terminal Aerodrome Forecast
Issued by NWS

Home | Current Version | Previous Version | Graphics & Text | Print | Product List | Glossary On
Versions: 1 2 3 4 5 6 7 8 9 10 11 12 13 14 15 16 17 18 19 20 21
000
FTUS42 KMHX 142300
TAFISO
TAF
KISO 142330Z 1500/1524 17010G15KT P6SM SCT025 BKN040
     FM150200 18010G15KT P6SM VCSH SCT007 BKN020
     FM150700 18010G15KT 5SM -RA SCT007 OVC020
     FM151300 19014G20KT P6SM BKN025
     FM151900 20015G22KT P6SM -RA VCTS SCT007 BKN025CB
      AMD LTD TO CLD VIS AND WIND=

USA.gov is the U.S. government's official web portal to all federal, state and local government web resources and services.